createdAt,value
2023-05-17T00:00:32.077Z,3.97
2023-05-17T00:03:01.606Z,4.10
2023-05-17T00:05:30.019Z,3.23
2023-05-17T00:07:58.210Z,4.17
2023-05-17T00:10:26.359Z,3.20
2023-05-17T00:12:54.501Z,3.73
2023-05-17T00:15:22.594Z,3.83
2023-05-17T00:17:50.764Z,3.90
2023-05-17T00:20:20.557Z,3.37
2023-05-17T00:22:48.789Z,3.67
2023-05-17T00:25:16.896Z,3.23
2023-05-17T00:27:44.966Z,4.07
2023-05-17T00:30:17.554Z,3.60
2023-05-17T00:32:47.032Z,3.43
2023-05-17T00:35:15.499Z,3.60
2023-05-17T00:37:47.896Z,3.27
2023-05-17T00:40:16.782Z,3.43
2023-05-17T00:42:45.646Z,3.47
2023-05-17T00:45:13.838Z,3.73
2023-05-17T00:47:42.658Z,3.30
2023-05-17T00:50:12.031Z,3.20
2023-05-17T00:52:40.479Z,3.40
2023-05-17T00:55:10.377Z,3.40
2023-05-17T00:57:39.343Z,3.77
2023-05-17T01:00:08.790Z,3.47
2023-05-17T01:02:37.126Z,3.10
2023-05-17T01:05:06.189Z,3.50
2023-05-17T01:07:35.796Z,3.77
2023-05-17T01:10:04.354Z,3.40
2023-05-17T01:12:46.502Z,3.77
2023-05-17T01:15:17.000Z,3.23
2023-05-17T01:17:55.336Z,2.80
2023-05-17T01:20:29.616Z,3.07
2023-05-17T01:23:15.752Z,3.30
2023-05-17T01:25:55.931Z,2.77
2023-05-17T01:28:28.492Z,4.33
2023-05-17T01:30:58.574Z,3.70
2023-05-17T01:33:27.445Z,3.23
2023-05-17T01:35:55.657Z,2.93
2023-05-17T01:38:23.840Z,3.47
2023-05-17T01:40:57.596Z,2.93
2023-05-17T01:43:34.859Z,3.23
2023-05-17T01:46:11.235Z,3.30
2023-05-17T01:48:48.898Z,3.27
2023-05-17T01:51:20.979Z,3.10
2023-05-17T01:53:56.567Z,3.83
2023-05-17T01:56:32.086Z,3.10
2023-05-17T01:59:04.838Z,3.20
2023-05-17T02:01:34.552Z,3.40
2023-05-17T02:04:02.687Z,3.40
2023-05-17T02:06:33.437Z,3.40
2023-05-17T02:09:03.053Z,2.57
2023-05-17T02:11:32.301Z,3.00
2023-05-17T02:14:01.829Z,2.80
2023-05-17T02:16:29.911Z,3.10
2023-05-17T02:18:58.018Z,2.43
2023-05-17T02:21:26.187Z,2.43
2023-05-17T02:23:54.253Z,2.87
2023-05-17T02:26:22.359Z,3.17
2023-05-17T02:28:50.423Z,3.30
2023-05-17T02:31:20.030Z,2.77
2023-05-17T02:33:50.789Z,2.63
2023-05-17T02:36:18.881Z,2.80
2023-05-17T02:38:46.989Z,2.40
2023-05-17T02:41:15.171Z,2.77
2023-05-17T02:43:43.207Z,2.17
2023-05-17T02:46:11.329Z,2.50
2023-05-17T02:48:40.781Z,2.67
2023-05-17T02:51:08.905Z,1.97
2023-05-17T02:53:37.288Z,2.37
2023-05-17T02:56:06.014Z,2.23
2023-05-17T02:58:34.702Z,1.80
2023-05-17T03:01:02.786Z,2.23
2023-05-17T03:03:31.884Z,1.73
2023-05-17T03:06:05.997Z,2.50
2023-05-17T03:08:34.643Z,2.17
2023-05-17T03:11:03.949Z,2.30
2023-05-17T03:13:32.295Z,1.60
2023-05-17T03:16:01.355Z,1.70
2023-05-17T03:18:29.778Z,2.20
2023-05-17T03:20:58.799Z,2.03
2023-05-17T03:23:28.534Z,2.20
2023-05-17T03:26:01.665Z,2.20
2023-05-17T03:28:33.241Z,1.97
2023-05-17T03:31:01.913Z,2.10
2023-05-17T03:33:33.278Z,1.73
2023-05-17T03:36:01.862Z,2.00
2023-05-17T03:38:31.553Z,1.63
2023-05-17T03:40:59.867Z,2.40
2023-05-17T03:43:28.639Z,1.80
2023-05-17T03:45:58.108Z,1.87
2023-05-17T03:48:26.433Z,2.13
2023-05-17T03:50:54.981Z,2.10
2023-05-17T03:53:23.288Z,1.90
2023-05-17T03:55:52.693Z,1.90
2023-05-17T03:58:20.938Z,1.77
2023-05-17T04:00:49.888Z,1.80
2023-05-17T04:03:20.410Z,1.73
2023-05-17T04:05:48.957Z,2.20
2023-05-17T04:08:17.167Z,1.60
2023-05-17T04:10:45.360Z,1.70
2023-05-17T04:13:14.900Z,1.83
2023-05-17T04:15:42.982Z,1.70
2023-05-17T04:18:11.152Z,2.10
2023-05-17T04:20:40.419Z,2.40
2023-05-17T04:23:08.636Z,2.13
2023-05-17T04:25:37.834Z,2.53
2023-05-17T04:28:06.099Z,2.73
2023-05-17T04:30:36.699Z,2.40
2023-05-17T04:33:05.034Z,2.83
2023-05-17T04:35:33.202Z,2.90
2023-05-17T04:38:01.581Z,2.43
2023-05-17T04:40:29.631Z,2.90
2023-05-17T04:42:58.546Z,2.63
2023-05-17T04:45:27.560Z,2.50
2023-05-17T04:47:57.577Z,2.70
2023-05-17T04:50:26.754Z,2.40
2023-05-17T04:52:54.941Z,2.77
2023-05-17T04:55:23.276Z,2.50
2023-05-17T04:57:51.514Z,3.17
2023-05-17T05:00:21.082Z,2.43
2023-05-17T05:02:56.860Z,2.20
2023-05-17T05:05:26.206Z,2.17
2023-05-17T05:07:54.533Z,2.30
2023-05-17T05:10:23.136Z,2.47
2023-05-17T05:12:51.285Z,2.27
2023-05-17T05:15:20.135Z,2.50
2023-05-17T05:17:54.471Z,2.60
2023-05-17T05:20:25.861Z,2.00
2023-05-17T05:22:58.834Z,2.47
2023-05-17T05:25:28.387Z,2.30
2023-05-17T05:27:56.863Z,2.43
2023-05-17T05:30:25.384Z,3.00
2023-05-17T05:32:56.032Z,2.17
2023-05-17T05:35:30.197Z,2.20
2023-05-17T05:37:59.832Z,2.33
2023-05-17T05:40:28.628Z,2.33
2023-05-17T05:42:57.099Z,2.30
2023-05-17T05:45:25.209Z,2.97
2023-05-17T05:47:55.842Z,2.70
2023-05-17T05:50:25.401Z,2.30
2023-05-17T05:53:07.090Z,2.27
2023-05-17T05:55:43.383Z,2.37
2023-05-17T05:58:11.918Z,2.23
2023-05-17T06:00:40.247Z,2.43
2023-05-17T06:03:08.409Z,2.23
2023-05-17T06:05:38.502Z,2.77
2023-05-17T06:08:06.743Z,3.00
2023-05-17T06:10:34.966Z,2.30
2023-05-17T06:16:44.704Z,1.73
2023-05-17T06:19:15.296Z,2.17
2023-05-17T06:21:45.054Z,2.37
2023-05-17T06:24:13.231Z,2.03
2023-05-17T06:26:41.477Z,2.57
2023-05-17T06:29:09.622Z,2.10
2023-05-17T06:31:37.723Z,2.10
2023-05-17T06:34:06.035Z,1.77
2023-05-17T06:36:35.272Z,2.33
2023-05-17T06:39:05.816Z,2.17
2023-05-17T06:41:34.989Z,1.90
2023-05-17T06:44:03.072Z,2.30
2023-05-17T06:46:31.335Z,1.87
2023-05-17T06:48:59.528Z,2.37
2023-05-17T06:51:27.807Z,1.73
2023-05-17T06:53:55.885Z,2.17
2023-05-17T06:56:25.938Z,1.70
2023-05-17T06:58:54.024Z,2.30
2023-05-17T07:01:22.299Z,2.87
2023-05-17T07:03:50.496Z,2.20
2023-05-17T07:06:18.667Z,2.07
2023-05-17T07:08:46.751Z,2.47
2023-05-17T07:11:14.890Z,2.60
2023-05-17T07:13:44.348Z,2.03
2023-05-17T07:16:12.642Z,2.23
2023-05-17T07:18:41.019Z,1.93
2023-05-17T07:21:09.124Z,2.17
2023-05-17T07:32:26.303Z,1.80
2023-05-17T07:34:54.542Z,2.20
2023-05-17T07:37:22.667Z,2.07
2023-05-17T07:39:50.672Z,2.17
2023-05-17T07:42:18.656Z,2.23
2023-05-17T07:44:48.552Z,1.73
2023-05-17T07:47:17.040Z,2.07
2023-05-17T07:49:48.588Z,2.17
2023-05-17T07:52:16.619Z,3.03
2023-05-17T07:54:44.654Z,1.90
2023-05-17T07:57:12.654Z,2.10
2023-05-17T07:59:40.761Z,1.97
2023-05-17T08:02:09.810Z,2.30
2023-05-17T08:04:38.385Z,2.00
2023-05-17T08:07:07.901Z,2.17
2023-05-17T08:09:36.285Z,2.10
2023-05-17T08:12:04.302Z,1.70
2023-05-17T08:14:32.670Z,2.07
2023-05-17T08:17:00.794Z,2.00
2023-05-17T08:19:29.068Z,1.90
2023-05-17T08:21:57.279Z,1.50
2023-05-17T08:24:26.595Z,1.70
2023-05-17T08:26:57.553Z,1.67
2023-05-17T08:29:25.604Z,1.30
2023-05-17T08:31:54.750Z,1.90
2023-05-17T08:34:22.850Z,1.33
2023-05-17T08:36:50.889Z,1.87
2023-05-17T08:39:20.453Z,1.77
2023-05-17T08:41:49.951Z,2.10
2023-05-17T08:44:18.158Z,2.00
2023-05-17T08:46:51.740Z,2.10
2023-05-17T08:49:22.541Z,2.53
2023-05-17T08:51:52.159Z,1.90
2023-05-17T08:54:20.316Z,1.67
2023-05-17T08:56:52.550Z,1.77
2023-05-17T08:59:21.029Z,2.17
2023-05-17T09:01:51.002Z,2.07
2023-05-17T09:04:19.918Z,2.40
2023-05-17T09:06:48.563Z,2.13
2023-05-17T09:09:16.735Z,2.03
2023-05-17T09:11:44.751Z,2.33
2023-05-17T09:14:17.227Z,2.20
2023-05-17T09:16:45.434Z,3.10
2023-05-17T09:19:18.020Z,2.63
2023-05-17T09:21:48.040Z,2.07
2023-05-17T09:24:20.207Z,2.10
2023-05-17T09:26:48.201Z,2.20
2023-05-17T09:29:17.970Z,2.10
2023-05-17T09:31:46.205Z,2.10
2023-05-17T09:34:19.056Z,2.20
2023-05-17T09:36:47.218Z,2.33
2023-05-17T09:39:15.749Z,2.53
2023-05-17T09:41:45.469Z,2.20
2023-05-17T09:44:15.340Z,1.97
2023-05-17T09:46:47.295Z,2.33
2023-05-17T09:49:16.531Z,2.03
2023-05-17T09:51:46.129Z,2.10
2023-05-17T09:54:14.314Z,2.10
2023-05-17T09:56:43.083Z,1.90
2023-05-17T09:59:15.496Z,1.73
2023-05-17T10:01:46.075Z,1.70
2023-05-17T10:04:20.339Z,1.73
2023-05-17T10:06:52.295Z,2.17
2023-05-17T10:09:25.294Z,2.60
2023-05-17T10:11:56.616Z,1.60
2023-05-17T10:14:31.774Z,2.00
2023-05-17T10:17:03.217Z,1.80
2023-05-17T10:19:32.127Z,1.63
2023-05-17T10:22:14.746Z,1.63
2023-05-17T10:24:51.190Z,1.87
2023-05-17T10:27:19.231Z,1.87
2023-05-17T10:29:50.132Z,1.47
2023-05-17T10:32:23.308Z,1.60
2023-05-17T10:35:05.892Z,2.20
2023-05-17T10:37:38.040Z,1.77
2023-05-17T10:40:07.282Z,1.60
2023-05-17T10:42:35.777Z,2.07
2023-05-17T10:45:04.192Z,1.57
2023-05-17T10:47:36.691Z,1.77
2023-05-17T10:50:13.004Z,1.93
2023-05-17T10:52:47.743Z,1.50
2023-05-17T10:55:20.724Z,1.43
2023-05-17T10:58:19.635Z,1.40
2023-05-17T11:00:50.060Z,1.83
2023-05-17T11:03:22.556Z,1.73
2023-05-17T11:06:24.586Z,1.57
2023-05-17T11:09:14.775Z,1.60
2023-05-17T11:12:04.904Z,1.50
2023-05-17T11:14:52.823Z,1.70
2023-05-17T11:17:22.077Z,1.60
2023-05-17T11:20:13.701Z,1.87
2023-05-17T11:22:43.306Z,1.87
2023-05-17T11:25:13.250Z,1.83
2023-05-17T11:27:46.686Z,2.27
2023-05-17T11:30:20.633Z,1.70
2023-05-17T11:32:51.336Z,1.40
2023-05-17T11:35:24.600Z,1.40
2023-05-17T11:37:54.179Z,1.50
2023-05-17T11:40:29.281Z,1.43
2023-05-17T11:43:17.776Z,1.30
2023-05-17T11:45:50.671Z,1.23
2023-05-17T11:48:21.539Z,1.40
2023-05-17T11:50:52.324Z,2.27
2023-05-17T11:53:21.007Z,1.30
2023-05-17T11:55:50.537Z,1.37
2023-05-17T11:58:20.054Z,1.57
2023-05-17T12:00:54.364Z,1.43
2023-05-17T12:03:24.409Z,1.63
2023-05-17T12:06:04.267Z,1.90
2023-05-17T12:08:34.194Z,1.80
2023-05-17T12:11:05.796Z,1.90
2023-05-17T12:13:36.363Z,2.27
2023-05-17T12:16:08.622Z,1.87
2023-05-17T12:18:38.069Z,1.70
2023-05-17T12:21:09.406Z,1.93
2023-05-17T12:23:41.048Z,1.90
2023-05-17T12:26:10.622Z,1.93
2023-05-17T12:28:40.271Z,1.90
2023-05-17T12:31:11.178Z,1.80
2023-05-17T12:33:41.313Z,1.60
2023-05-17T12:36:12.825Z,1.47
2023-05-17T12:38:42.101Z,1.90
2023-05-17T12:41:11.755Z,1.53
2023-05-17T12:43:41.095Z,1.30
2023-05-17T12:46:10.418Z,1.23
2023-05-17T12:48:39.415Z,1.87
2023-05-17T12:51:11.983Z,1.40
2023-05-17T12:53:41.652Z,1.10
2023-05-17T12:56:15.428Z,1.37
2023-05-17T12:58:43.501Z,1.50
2023-05-17T13:01:14.445Z,1.50
2023-05-17T13:03:42.751Z,1.77
2023-05-17T13:06:12.225Z,1.60
2023-05-17T13:08:42.327Z,1.80
2023-05-17T13:11:13.744Z,1.83
2023-05-17T13:13:42.364Z,1.83
2023-05-17T13:16:10.655Z,1.50
2023-05-17T13:18:49.270Z,1.77
2023-05-17T13:21:19.728Z,1.73
2023-05-17T13:23:48.814Z,1.70
2023-05-17T13:26:17.380Z,1.50
2023-05-17T13:28:46.060Z,2.00
2023-05-17T13:31:14.176Z,1.77
2023-05-17T13:33:42.440Z,2.00
2023-05-17T13:36:10.868Z,2.10
2023-05-17T13:38:40.332Z,1.93
2023-05-17T13:41:09.328Z,1.97
2023-05-17T13:43:37.726Z,2.10
2023-05-17T13:46:05.786Z,1.80
2023-05-17T13:48:34.148Z,1.90
2023-05-17T13:51:02.472Z,2.43
2023-05-17T13:53:30.553Z,2.50
2023-05-17T13:55:59.960Z,2.07
2023-05-17T13:58:28.272Z,3.07
2023-05-17T14:00:56.373Z,2.30
2023-05-17T14:03:24.476Z,2.00
2023-05-17T14:05:53.356Z,2.23
2023-05-17T14:08:21.576Z,2.10
2023-05-17T14:10:49.814Z,2.10
2023-05-17T14:13:19.155Z,2.03
2023-05-17T14:15:47.271Z,2.27
2023-05-17T14:18:15.336Z,2.60
2023-05-17T14:20:43.818Z,1.80
2023-05-17T14:23:11.914Z,2.07
2023-05-17T14:25:40.509Z,2.10
2023-05-17T14:28:08.488Z,1.77
2023-05-17T14:30:38.009Z,1.93
2023-05-17T14:33:06.261Z,2.00
2023-05-17T14:35:34.410Z,1.93
2023-05-17T14:38:02.471Z,2.10
2023-05-17T14:40:31.497Z,2.07
2023-05-17T14:42:59.831Z,2.00
2023-05-17T14:45:27.813Z,1.90
2023-05-17T14:47:57.306Z,1.80
2023-05-17T14:50:25.304Z,2.00
2023-05-17T14:52:53.372Z,1.63
2023-05-17T14:55:21.376Z,1.60
2023-05-17T14:57:52.015Z,1.40
2023-05-17T15:00:20.597Z,1.70
2023-05-17T15:02:48.731Z,1.60
2023-05-17T15:05:18.590Z,1.57
2023-05-17T15:07:47.454Z,1.53
2023-05-17T15:10:15.934Z,1.47
2023-05-17T15:12:43.943Z,1.73
2023-05-17T15:15:12.431Z,1.80
2023-05-17T15:17:40.578Z,1.90
2023-05-17T15:20:10.673Z,1.90
2023-05-17T15:22:40.218Z,2.07
2023-05-17T15:25:08.819Z,1.70
2023-05-17T15:27:37.068Z,1.97
2023-05-17T15:30:05.796Z,1.87
2023-05-17T15:32:35.163Z,1.90
2023-05-17T15:35:03.276Z,1.73
2023-05-17T15:37:31.503Z,1.63
2023-05-17T15:40:09.010Z,2.17
2023-05-17T15:42:37.053Z,1.57
2023-05-17T15:45:05.704Z,1.73
2023-05-17T15:50:05.578Z,1.43
2023-05-17T15:52:33.580Z,1.50
2023-05-17T15:55:02.991Z,1.80
2023-05-17T15:57:30.985Z,1.73
2023-05-17T15:59:58.963Z,1.73
2023-05-17T16:02:27.264Z,1.60
2023-05-17T16:04:55.717Z,2.03
2023-05-17T16:07:26.226Z,2.13
2023-05-17T16:09:54.574Z,2.23
2023-05-17T16:12:24.115Z,2.23
2023-05-17T16:14:52.232Z,1.97
2023-05-17T16:17:20.265Z,1.83
2023-05-17T16:19:48.378Z,1.63
2023-05-17T16:22:16.455Z,2.20
2023-05-17T16:24:44.584Z,2.30
2023-05-17T16:27:12.589Z,2.13
2023-05-17T16:29:41.981Z,1.80
2023-05-17T16:32:10.117Z,2.07
2023-05-17T16:34:38.163Z,2.03
2023-05-17T16:37:06.604Z,2.40
2023-05-17T16:39:34.684Z,2.50
2023-05-17T16:42:02.960Z,2.33
2023-05-17T16:44:31.035Z,2.17
2023-05-17T16:47:01.416Z,2.27
2023-05-17T16:49:30.127Z,2.20
2023-05-17T16:51:58.154Z,2.20
2023-05-17T16:54:28.032Z,1.83
2023-05-17T16:56:56.168Z,2.10
2023-05-17T16:59:24.180Z,1.87
2023-05-17T17:01:52.261Z,2.10
2023-05-17T17:04:21.800Z,2.27
2023-05-17T17:06:50.002Z,2.10
2023-05-17T17:09:18.587Z,1.83
2023-05-17T17:11:46.607Z,1.80
2023-05-17T17:14:14.903Z,1.70
2023-05-17T17:16:43.226Z,1.97
2023-05-17T17:19:11.776Z,2.07
2023-05-17T17:21:42.308Z,1.73
2023-05-17T17:24:10.425Z,1.67
2023-05-17T17:26:38.443Z,1.70
2023-05-17T17:29:08.087Z,1.67
2023-05-17T17:31:36.102Z,1.70
2023-05-17T17:34:04.087Z,1.77
2023-05-17T17:36:32.176Z,1.97
2023-05-17T17:39:01.604Z,1.90
2023-05-17T17:41:29.715Z,1.70
2023-05-17T17:43:57.755Z,1.60
2023-05-17T17:46:26.304Z,1.57
2023-05-17T17:48:56.592Z,1.67
2023-05-17T17:51:24.845Z,1.47
2023-05-17T17:53:53.712Z,1.63
2023-05-17T17:56:25.344Z,1.47
2023-05-17T17:58:55.782Z,1.77
2023-05-17T18:01:24.101Z,1.50
2023-05-17T18:03:52.171Z,1.97
2023-05-17T18:06:20.420Z,1.47
2023-05-17T18:08:48.490Z,1.37
2023-05-17T18:11:16.856Z,1.63
2023-05-17T18:13:46.563Z,1.70
2023-05-17T18:16:14.609Z,1.80
2023-05-17T18:18:42.660Z,1.90
2023-05-17T18:21:11.358Z,1.40
2023-05-17T18:23:39.634Z,1.50
2023-05-17T18:26:07.755Z,1.63
2023-05-17T18:28:42.463Z,1.80
2023-05-17T18:31:14.164Z,1.80
2023-05-17T18:33:42.223Z,1.80
2023-05-17T18:36:10.352Z,1.70
2023-05-17T18:38:38.384Z,1.80
2023-05-17T18:41:06.663Z,1.90
2023-05-17T18:43:34.662Z,1.33
2023-05-17T18:46:02.906Z,2.00
2023-05-17T18:48:35.940Z,1.90
2023-05-17T18:51:04.023Z,1.80
2023-05-17T18:53:32.060Z,1.70
2023-05-17T18:56:02.427Z,2.27
2023-05-17T18:58:30.831Z,2.20
2023-05-17T19:01:00.184Z,1.90
2023-05-17T19:03:28.326Z,2.00
2023-05-17T19:05:57.756Z,2.00
2023-05-17T19:08:25.771Z,1.70
2023-05-17T19:10:53.789Z,1.60
2023-05-17T19:13:21.856Z,1.90
2023-05-17T19:15:50.540Z,1.90
2023-05-17T19:18:18.525Z,1.50
2023-05-17T19:20:46.589Z,1.90
2023-05-17T19:23:15.956Z,1.90
2023-05-17T19:25:43.971Z,1.97
2023-05-17T19:28:11.972Z,1.90
2023-05-17T19:30:40.244Z,1.67
2023-05-17T19:33:08.606Z,2.20
2023-05-17T19:35:37.017Z,2.10
2023-05-17T19:38:05.034Z,2.17
2023-05-17T19:40:34.410Z,1.90
2023-05-17T19:43:03.603Z,1.67
2023-05-17T19:45:31.650Z,1.77
2023-05-17T19:48:00.240Z,1.70
2023-05-17T19:50:28.404Z,1.63
2023-05-17T19:52:56.579Z,1.50
2023-05-17T19:55:26.377Z,1.70
2023-05-17T19:57:55.820Z,1.70
2023-05-17T20:00:23.919Z,1.63
2023-05-17T20:02:52.067Z,1.80
2023-05-17T20:05:20.607Z,1.80
2023-05-17T20:07:48.577Z,1.63
2023-05-17T20:10:16.613Z,2.17
2023-05-17T20:12:44.876Z,2.07
2023-05-17T20:15:14.466Z,1.70
2023-05-17T20:17:42.504Z,1.90
2023-05-17T20:20:10.808Z,1.80
2023-05-17T20:22:40.974Z,1.80
2023-05-17T20:25:09.075Z,1.53
2023-05-17T20:27:37.159Z,1.67
2023-05-17T20:30:06.088Z,1.63
2023-05-17T20:32:35.682Z,1.83
2023-05-17T20:35:03.797Z,1.73
2023-05-17T20:37:31.827Z,1.73
2023-05-17T20:40:00.802Z,1.67
2023-05-17T20:42:31.023Z,1.43
2023-05-17T20:44:59.068Z,1.70
2023-05-17T20:47:28.949Z,1.77
2023-05-17T20:49:59.665Z,1.67
2023-05-17T20:52:38.726Z,1.60
2023-05-17T20:55:08.496Z,1.80
2023-05-17T20:57:36.661Z,1.70
2023-05-17T21:00:09.545Z,2.40
2023-05-17T21:02:38.580Z,1.50
2023-05-17T21:05:09.139Z,1.70
2023-05-17T21:07:39.207Z,1.53
2023-05-17T21:10:08.089Z,1.33
2023-05-17T21:12:36.696Z,1.53
2023-05-17T21:15:16.364Z,2.30
2023-05-17T21:17:45.587Z,2.00
2023-05-17T21:20:15.588Z,1.50
2023-05-17T21:22:44.339Z,1.50
2023-05-17T21:25:12.392Z,1.40
2023-05-17T21:27:40.485Z,1.60
2023-05-17T21:30:11.903Z,1.80
2023-05-17T21:32:40.011Z,1.77
2023-05-17T21:35:08.764Z,1.80
2023-05-17T21:37:40.082Z,1.70
2023-05-17T21:40:09.611Z,1.70
2023-05-17T21:42:37.770Z,1.77
2023-05-17T21:45:09.172Z,1.60
2023-05-17T21:47:37.250Z,1.87
2023-05-17T21:50:05.863Z,1.77
2023-05-17T21:52:34.188Z,2.00
2023-05-17T21:55:03.632Z,1.83
2023-05-17T21:57:36.368Z,1.70
2023-05-17T22:00:05.544Z,1.80
2023-05-17T22:02:35.860Z,2.07
2023-05-17T22:05:04.151Z,2.30
2023-05-17T22:07:32.175Z,1.83
2023-05-17T22:10:00.329Z,1.63
2023-05-17T22:12:29.796Z,1.60
2023-05-17T22:14:58.556Z,1.60
2023-05-17T22:17:35.114Z,1.50
2023-05-17T22:20:11.800Z,1.50
2023-05-17T22:22:39.825Z,1.73
2023-05-17T22:25:10.251Z,2.17
2023-05-17T22:27:39.574Z,1.30
2023-05-17T22:30:08.889Z,1.67
2023-05-17T22:32:38.022Z,1.70
2023-05-17T22:35:08.597Z,1.80
2023-05-17T22:37:37.543Z,1.80
2023-05-17T22:40:08.120Z,1.50
2023-05-17T22:42:36.272Z,1.70
2023-05-17T22:45:06.811Z,1.40
2023-05-17T22:47:35.239Z,1.70
2023-05-17T22:50:03.891Z,1.60
2023-05-17T22:52:32.623Z,1.80
2023-05-17T22:55:01.839Z,1.53
2023-05-17T22:57:29.811Z,1.90
2023-05-17T22:59:57.875Z,1.57
2023-05-17T23:02:27.824Z,1.50
2023-05-17T23:04:57.068Z,1.60
2023-05-17T23:07:25.182Z,1.33
2023-05-17T23:09:53.728Z,1.73
2023-05-17T23:12:26.453Z,1.60
2023-05-17T23:14:57.802Z,1.93
2023-05-17T23:17:32.526Z,1.50
2023-05-17T23:20:01.957Z,1.97
2023-05-17T23:22:31.414Z,1.77
2023-05-17T23:25:00.280Z,1.60
2023-05-17T23:27:30.038Z,1.60
2023-05-17T23:29:58.205Z,1.80
2023-05-17T23:32:27.765Z,1.53
2023-05-17T23:34:58.421Z,1.63
2023-05-17T23:37:26.553Z,1.73
2023-05-17T23:39:54.545Z,1.57
2023-05-17T23:42:26.308Z,1.80
2023-05-17T23:44:54.458Z,1.73
2023-05-17T23:47:23.180Z,2.33
2023-05-17T23:49:52.718Z,1.83
2023-05-17T23:52:21.026Z,2.17
2023-05-17T23:54:49.230Z,2.23
2023-05-17T23:57:17.481Z,2.10
2023-05-17T23:59:45.575Z,1.40
